Time;durP1;ratioP1;P1;durP2;ratioP2;P2;SDS_P1;SDS_P2;PMS_P1;PMS_P2;Temp;Humidity;BMP_temperature;BMP_pressure;BME280_temperature;BME280_humidity;BME280_pressure;Samples;Min_cycle;Max_cycle;Signal;HPM_P1;HPM_P2
2022/10/13 00:00:54;;;;;;;19.12;8.15;;;;;;;20.35;48.09;101617.42;1746844;82;21582;-85
2022/10/13 00:03:20;;;;;;;13.43;8.05;;;;;;;20.34;48.06;101614.39;1729423;82;21076;-85
2022/10/13 00:05:48;;;;;;;14.05;8.03;;;;;;;20.34;48.03;101605.55;1746657;82;21043;-84
2022/10/13 00:08:18;;;;;;;12.03;8.08;;;;;;;20.35;48.03;101618.81;1746276;82;21468;-84
2022/10/13 00:10:45;;;;;;;14.70;8.68;;;;;;;20.35;48.00;101611.91;1701270;83;21498;-85
2022/10/13 00:13:12;;;;;;;14.10;8.18;;;;;;;20.34;47.97;101611.62;1716786;83;21035;-85
2022/10/13 00:15:39;;;;;;;14.47;8.18;;;;;;;20.33;47.96;101603.89;1717128;83;21056;-85
2022/10/13 00:18:05;;;;;;;14.45;8.30;;;;;;;20.34;47.94;101600.02;1717187;83;21574;-84
2022/10/13 00:20:32;;;;;;;14.05;8.50;;;;;;;20.34;47.94;101600.58;1716913;83;21196;-85
2022/10/13 00:22:58;;;;;;;14.25;8.08;;;;;;;20.34;47.90;101603.34;1717077;83;21033;-85
2022/10/13 00:25:25;;;;;;;15.60;8.00;;;;;;;20.34;47.90;101600.58;1717149;82;21487;-85
2022/10/13 00:27:51;;;;;;;14.33;9.23;;;;;;;20.34;47.85;101600.58;1716777;82;21000;-84
2022/10/13 00:30:17;;;;;;;18.05;8.78;;;;;;;20.33;47.84;101596.16;1717070;83;21088;-85
2022/10/13 00:32:44;;;;;;;12.50;7.95;;;;;;;20.33;47.82;101597.54;1700727;83;21603;-84
2022/10/13 00:35:10;;;;;;;16.37;8.60;;;;;;;20.32;47.81;101591.77;1716953;82;20949;-84
2022/10/13 00:37:36;;;;;;;14.95;8.50;;;;;;;20.32;47.79;101593.98;1717242;83;21079;-85
2022/10/13 00:40:03;;;;;;;12.80;8.28;;;;;;;20.34;47.77;101601.95;1716817;83;21092;-85
2022/10/13 00:42:30;;;;;;;16.07;8.33;;;;;;;20.33;47.74;101601.69;1712536;82;21071;-85
2022/10/13 00:45:18;;;;;;;13.30;7.95;;;;;;;20.32;47.71;101596.75;1712257;83;21736;-85
2022/10/13 00:47:47;;;;;;;14.30;8.20;;;;;;;20.32;47.67;101598.12;1711927;83;21058;-85
2022/10/13 00:50:17;;;;;;;15.23;9.03;;;;;;;20.32;47.64;101606.97;1712238;83;21466;-85
2022/10/13 00:52:43;;;;;;;13.93;8.10;;;;;;;20.32;47.62;101604.21;1712286;83;21513;-85
2022/10/13 00:55:11;;;;;;;18.17;8.53;;;;;;;20.32;47.57;101591.77;1711994;83;20995;-84
2022/10/13 00:57:39;;;;;;;13.32;8.28;;;;;;;20.32;47.55;101595.92;1712215;83;21053;-84
2022/10/13 01:00:06;;;;;;;14.70;8.10;;;;;;;20.30;47.54;101592.62;1712062;83;21050;-84
2022/10/13 01:02:35;;;;;;;12.45;8.08;;;;;;;20.31;47.49;101596.48;1711980;83;21086;-84
2022/10/13 01:05:02;;;;;;;14.53;8.33;;;;;;;20.31;47.48;101599.80;1712041;83;20996;-85
2022/10/13 01:07:29;;;;;;;14.70;8.85;;;;;;;20.31;47.46;101604.77;1712378;83;21019;-85
2022/10/13 01:09:55;;;;;;;15.28;8.45;;;;;;;20.31;47.42;101603.94;1687516;83;21184;-85
2022/10/13 01:12:51;;;;;;;13.60;8.20;;;;;;;20.30;47.42;101604.50;1711978;83;21007;-85
2022/10/13 01:15:29;;;;;;;16.07;8.65;;;;;;;20.31;47.38;101606.70;1711988;83;21668;-85
2022/10/13 01:18:13;;;;;;;12.40;7.60;;;;;;;20.30;47.36;101605.88;1712195;82;21485;-84
2022/10/13 01:20:54;;;;;;;13.22;7.85;;;;;;;20.29;47.35;101597.84;1712062;83;21043;-86
2022/10/13 01:23:46;;;;;;;14.35;7.60;;;;;;;20.29;47.31;101608.38;1724756;82;21499;-85
2022/10/13 01:26:35;;;;;;;17.73;8.28;;;;;;;20.28;47.30;101600.37;1740536;81;21522;-84
2022/10/13 01:29:28;;;;;;;13.68;7.97;;;;;;;20.28;47.29;101603.95;1741532;82;21029;-85
2022/10/13 01:32:30;;;;;;;12.45;8.13;;;;;;;20.28;47.24;101608.66;1740881;81;21037;-85
2022/10/13 01:35:37;;;;;;;14.23;8.03;;;;;;;20.27;47.23;101606.45;1741406;82;21025;-84
2022/10/13 01:38:23;;;;;;;15.03;8.23;;;;;;;20.26;47.21;101602.03;1741335;82;21439;-84
2022/10/13 01:41:18;;;;;;;14.78;8.58;;;;;;;20.25;47.20;101605.08;1741659;81;21075;-84
2022/10/13 01:43:52;;;;;;;16.57;8.20;;;;;;;20.25;47.17;101611.44;1746258;82;21087;-85
2022/10/13 01:46:32;;;;;;;15.50;8.48;;;;;;;20.24;47.17;101611.16;1746448;82;21582;-85
2022/10/13 01:49:00;;;;;;;12.65;8.05;;;;;;;20.25;47.16;101614.20;1746456;82;21033;-85
2022/10/13 01:51:26;;;;;;;12.93;8.23;;;;;;;20.24;47.17;101604.84;1746792;82;21113;-84
2022/10/13 01:53:52;;;;;;;12.88;8.10;;;;;;;20.24;47.14;101607.60;1747024;82;21024;-85
2022/10/13 01:56:19;;;;;;;14.55;8.53;;;;;;;20.24;47.12;101612.55;1729603;82;21529;-85
2022/10/13 01:58:45;;;;;;;13.58;8.18;;;;;;;20.25;47.11;101606.46;1729852;82;21009;-84
2022/10/13 02:01:38;;;;;;;14.03;7.65;;;;;;;20.24;47.10;101601.49;1701965;82;21036;-85
2022/10/13 02:04:28;;;;;;;15.03;9.08;;;;;;;20.24;47.10;101596.55;1746465;82;21087;-85
2022/10/13 02:07:18;;;;;;;12.93;7.60;;;;;;;20.24;47.06;101592.41;1746643;82;20989;-85
2022/10/13 02:10:08;;;;;;;11.95;7.78;;;;;;;20.25;47.04;101592.64;1746859;82;21546;-85
2022/10/13 02:12:57;;;;;;;11.33;7.53;;;;;;;20.24;47.03;101592.41;1746810;82;21009;-85
2022/10/13 02:15:28;;;;;;;12.37;7.95;;;;;;;20.24;47.00;101595.17;1746643;80;21577;-84
2022/10/13 02:17:55;;;;;;;10.28;7.28;;;;;;;20.24;47.00;101588.27;1746866;80;21118;-85
2022/10/13 02:20:21;;;;;;;11.30;7.00;;;;;;;20.23;46.96;101587.44;1754957;81;21012;-84
2022/10/13 02:22:51;;;;;;;12.40;7.97;;;;;;;20.24;46.95;101591.02;1729813;82;21516;-84
2022/10/13 02:25:18;;;;;;;11.43;7.97;;;;;;;20.24;46.90;101593.20;1747126;82;21115;-84
2022/10/13 02:27:44;;;;;;;11.25;7.70;;;;;;;20.25;46.87;101597.62;1746860;82;21139;-85
2022/10/13 02:30:22;;;;;;;14.20;7.70;;;;;;;20.24;46.85;101591.82;1746734;82;21836;-85
2022/10/13 02:32:48;;;;;;;12.93;7.53;;;;;;;20.24;46.83;101584.91;1746440;80;21515;-85
2022/10/13 02:35:15;;;;;;;11.28;7.50;;;;;;;20.25;46.78;101585.73;1746656;82;21513;-85
2022/10/13 02:37:41;;;;;;;17.48;8.30;;;;;;;20.24;46.76;101586.30;1721439;82;21063;-85
2022/10/13 02:40:08;;;;;;;16.30;7.35;;;;;;;20.25;46.73;101581.59;1718680;82;21004;-85
2022/10/13 02:42:35;;;;;;;13.62;7.80;;;;;;;20.25;46.68;101586.56;1735115;82;21515;-85
2022/10/13 02:45:01;;;;;;;13.83;7.67;;;;;;;20.25;46.68;101585.73;1735307;82;20968;-85
2022/10/13 02:47:28;;;;;;;13.35;7.70;;;;;;;20.26;46.62;101584.62;1735403;82;21086;-85
2022/10/13 02:49:54;;;;;;;10.40;7.53;;;;;;;20.26;46.60;101586.01;1718001;82;21123;-85
2022/10/13 02:52:20;;;;;;;12.03;7.37;;;;;;;20.26;46.57;101587.39;1718474;82;21601;-85
2022/10/13 02:54:47;;;;;;;14.90;8.68;;;;;;;20.25;46.55;101583.80;1735246;82;21959;-85
2022/10/13 02:57:13;;;;;;;12.40;8.10;;;;;;;20.25;46.46;101581.03;1734713;82;21047;-85
2022/10/13 02:59:39;;;;;;;12.35;8.08;;;;;;;20.27;46.39;101587.66;1735196;82;21008;-85
2022/10/13 03:02:06;;;;;;;12.13;7.90;;;;;;;20.28;46.30;101576.33;1735151;82;21430;-85
2022/10/13 03:04:32;;;;;;;12.58;7.20;;;;;;;20.30;46.25;101579.63;1734999;82;21131;-85
2022/10/13 03:06:58;;;;;;;14.07;8.10;;;;;;;20.34;46.23;101586.76;1735604;82;21786;-85
2022/10/13 03:09:25;;;;;;;12.95;7.28;;;;;;;20.37;46.20;101591.12;1735410;82;21040;-85
2022/10/13 03:11:51;;;;;;;9.53;6.72;;;;;;;20.41;46.18;101585.85;1735373;82;21024;-84
2022/10/13 03:14:18;;;;;;;13.30;7.37;;;;;;;20.47;46.15;101590.17;1724807;83;21004;-85
2022/10/13 03:16:44;;;;;;;10.43;7.08;;;;;;;20.50;46.12;101587.62;1717299;83;21051;-85
2022/10/13 03:19:10;;;;;;;11.28;6.65;;;;;;;20.56;46.08;101589.77;1716940;83;21073;-85
2022/10/13 03:21:38;;;;;;;11.18;7.35;;;;;;;20.62;46.05;101588.59;1717266;83;21033;-84
2022/10/13 03:24:04;;;;;;;11.22;7.50;;;;;;;20.68;46.01;101587.38;1717207;83;21040;-85
2022/10/13 03:26:32;;;;;;;11.00;7.10;;;;;;;20.74;45.95;101590.34;1716988;83;21025;-84
2022/10/13 03:28:58;;;;;;;12.65;7.72;;;;;;;20.80;45.91;101590.50;1717033;83;21113;-84
2022/10/13 03:31:24;;;;;;;11.63;6.97;;;;;;;20.87;45.82;101592.35;1717276;83;21870;-84
2022/10/13 03:33:51;;;;;;;10.98;6.67;;;;;;;20.94;45.75;101595.55;1717042;83;21044;-85
2022/10/13 03:36:17;;;;;;;10.28;6.83;;;;;;;21.02;45.67;101590.45;1700781;83;21502;-85
2022/10/13 03:38:44;;;;;;;10.43;6.72;;;;;;;21.10;45.59;101591.97;1717026;83;21057;-85
2022/10/13 03:41:13;;;;;;;12.33;6.92;;;;;;;21.16;45.51;101584.44;1716892;83;21035;-85
2022/10/13 03:43:39;;;;;;;12.40;7.17;;;;;;;21.23;45.42;101586.24;1716658;83;21888;-84
2022/10/13 03:46:06;;;;;;;11.50;7.42;;;;;;;21.29;45.30;101583.10;1717015;83;21100;-85
2022/10/13 03:48:33;;;;;;;10.43;6.55;;;;;;;21.36;45.23;101589.61;1716817;83;22116;-85
2022/10/13 03:51:06;;;;;;;11.90;7.10;;;;;;;21.44;45.14;101587.53;1717330;83;21044;-86
2022/10/13 03:53:32;;;;;;;12.37;7.47;;;;;;;21.51;45.05;101587.15;1717138;83;21119;-84
2022/10/13 03:55:59;;;;;;;10.28;7.83;;;;;;;21.58;44.98;101586.17;1716819;83;21116;-84
2022/10/13 03:58:27;;;;;;;10.20;7.30;;;;;;;21.65;44.87;101583.81;1724488;82;21052;-84
2022/10/13 04:00:54;;;;;;;11.22;7.47;;;;;;;21.72;44.75;101590.62;1746739;82;21511;-85
2022/10/13 04:03:20;;;;;;;12.70;7.75;;;;;;;21.80;44.64;101595.45;1746490;82;21064;-84
2022/10/13 04:05:47;;;;;;;11.10;7.47;;;;;;;21.88;44.55;101595.29;1746808;82;20996;-84
2022/10/13 04:08:13;;;;;;;9.90;7.10;;;;;;;21.96;44.46;101589.62;1746894;82;20937;-85
2022/10/13 04:10:40;;;;;;;12.25;7.05;;;;;;;22.05;44.32;101595.53;1729259;82;21543;-85
2022/10/13 04:13:12;;;;;;;12.18;7.55;;;;;;;22.14;44.23;101597.02;1746440;82;21111;-85
2022/10/13 04:15:39;;;;;;;11.25;7.95;;;;;;;22.21;44.08;101594.63;1746723;82;21246;-81
2022/10/13 04:18:06;;;;;;;20.12;7.50;;;;;;;22.29;43.94;101588.36;1746227;82;21064;-81
2022/10/13 04:20:38;;;;;;;29.10;8.58;;;;;;;22.35;43.85;101585.75;1745753;82;21498;-83
2022/10/13 04:23:04;;;;;;;24.10;7.83;;;;;;;22.42;43.80;101595.84;1746405;82;21052;-82
2022/10/13 04:25:33;;;;;;;22.98;8.60;;;;;;;22.48;43.71;101593.78;1738835;82;21012;-82
2022/10/13 04:28:00;;;;;;;27.67;8.28;;;;;;;22.54;43.65;101596.11;1718567;82;21048;-81
2022/10/13 04:30:26;;;;;;;20.95;8.40;;;;;;;22.60;43.54;101600.42;1735078;82;21029;-81
2022/10/13 04:32:53;;;;;;;14.93;7.53;;;;;;;22.65;43.51;101592.56;1734541;82;21044;-79
2022/10/13 04:35:19;;;;;;;21.65;7.83;;;;;;;22.69;43.46;101596.37;1739202;80;21496;-84
2022/10/13 04:37:45;;;;;;;18.30;7.83;;;;;;;22.74;43.42;101604.00;1777486;80;21043;-83
2022/10/13 04:40:12;;;;;;;19.48;8.18;;;;;;;22.78;43.35;101600.05;1775392;80;21051;-83
2022/10/13 04:42:38;;;;;;;24.37;8.83;;;;;;;22.83;43.27;101600.50;1738606;80;21676;-77
2022/10/13 04:45:08;;;;;;;14.07;8.50;;;;;;;22.86;43.19;101597.91;1740808;82;21095;-87
2022/10/13 04:47:35;;;;;;;17.53;9.50;;;;;;;22.88;43.10;101601.18;1722067;80;21068;-78
2022/10/13 04:50:02;;;;;;;21.97;9.55;;;;;;;22.86;43.04;101593.75;1713449;80;21044;-78
2022/10/13 04:52:28;;;;;;;23.92;9.30;;;;;;;22.91;42.90;101595.59;1725257;80;21063;-83
2022/10/13 04:54:54;;;;;;;17.77;9.15;;;;;;;22.90;42.80;101596.16;1724108;82;21052;-81
2022/10/13 04:57:21;;;;;;;26.23;9.40;;;;;;;22.90;42.76;101588.39;1722774;80;21586;-85
2022/10/13 04:59:47;;;;;;;29.50;9.95;;;;;;;22.91;42.69;101597.80;1734070;80;21447;-84
2022/10/13 05:02:13;;;;;;;22.13;9.45;;;;;;;22.91;42.66;101603.35;1716801;81;21045;-77
2022/10/13 05:04:40;;;;;;;22.58;9.18;;;;;;;22.92;42.58;101606.92;1721048;82;21693;-82
2022/10/13 05:07:06;;;;;;;25.27;9.23;;;;;;;22.91;42.54;101601.14;1733152;82;21216;-80
2022/10/13 05:09:32;;;;;;;22.05;9.28;;;;;;;22.90;42.56;101593.37;1732549;80;22031;-80
2022/10/13 05:11:58;;;;;;;24.45;10.10;;;;;;;22.92;42.55;101599.98;1731802;80;21044;-81
2022/10/13 05:14:25;;;;;;;25.45;10.30;;;;;;;22.95;42.54;101596.03;1728875;80;21482;-78
2022/10/13 05:16:51;;;;;;;28.55;10.98;;;;;;;22.97;42.55;101599.86;1718413;81;21489;-78
2022/10/13 05:19:19;;;;;;;19.65;9.90;;;;;;;22.99;42.55;101597.05;1733807;80;22173;-78
2022/10/13 05:21:45;;;;;;;24.63;9.93;;;;;;;23.02;42.53;101595.58;1745144;82;21087;-81
2022/10/13 05:24:12;;;;;;;28.27;10.65;;;;;;;23.07;42.52;101598.23;1717098;82;21060;-79
2022/10/13 05:26:38;;;;;;;23.95;11.33;;;;;;;23.10;42.46;101601.77;1695078;82;21595;-81
2022/10/13 05:29:05;;;;;;;22.73;11.38;;;;;;;23.15;42.41;101604.42;1738292;82;20948;-80
2022/10/13 05:31:33;;;;;;;21.97;11.38;;;;;;;23.18;42.37;101607.94;1739804;82;21083;-78
2022/10/13 05:34:00;;;;;;;22.45;11.10;;;;;;;23.22;42.29;101613.11;1727218;82;21101;-81
2022/10/13 05:36:30;;;;;;;29.70;12.05;;;;;;;23.26;42.22;101616.07;1730217;81;20984;-77
2022/10/13 05:38:59;;;;;;;21.63;12.20;;;;;;;23.31;42.18;101611.78;1727430;80;21135;-78
2022/10/13 05:41:26;;;;;;;23.92;11.97;;;;;;;23.32;42.11;101610.09;1731807;80;21123;-76
2022/10/13 05:43:56;;;;;;;22.82;11.00;;;;;;;23.35;42.10;101615.56;1714589;81;21060;-76
2022/10/13 05:46:25;;;;;;;25.23;10.80;;;;;;;23.40;42.43;101626.55;1722353;81;22429;-79
2022/10/13 05:48:52;;;;;;;21.75;10.28;;;;;;;23.40;42.43;101626.55;1730828;81;21076;-80
2022/10/13 05:51:23;;;;;;;21.85;10.10;;;;;;;23.40;42.20;101624.59;1724237;82;21622;-78
2022/10/13 05:53:53;;;;;;;23.05;9.50;;;;;;;23.36;42.28;101624.98;1717999;81;21510;-77
2022/10/13 05:56:23;;;;;;;27.80;10.72;;;;;;;23.31;42.47;101625.67;1726522;82;21654;-79
2022/10/13 05:59:00;;;;;;;23.70;9.53;;;;;;;23.24;42.60;101624.73;1716600;82;21283;-80
2022/10/13 06:01:27;;;;;;;36.45;8.88;;;;;;;23.20;42.64;101630.11;1724956;82;21080;-77
2022/10/13 06:03:54;;;;;;;31.33;9.80;;;;;;;23.13;42.79;101628.88;1723457;81;21095;-81
2022/10/13 06:06:22;;;;;;;41.65;11.05;;;;;;;23.08;42.94;101638.75;1726489;82;21567;-81
2022/10/13 06:08:50;;;;;;;38.45;9.80;;;;;;;23.05;43.09;101637.40;1736856;81;21038;-79
2022/10/13 06:11:16;;;;;;;34.03;9.73;;;;;;;23.03;43.19;101631.92;1731988;81;22108;-79
2022/10/13 06:13:42;;;;;;;25.20;8.68;;;;;;;23.01;43.30;101630.02;1732458;82;21108;-77
2022/10/13 06:16:09;;;;;;;28.23;9.38;;;;;;;22.98;43.45;101633.42;1725460;82;21048;-77
2022/10/13 06:18:35;;;;;;;26.70;8.75;;;;;;;22.96;43.63;101632.91;1726558;81;21557;-79
2022/10/13 06:21:01;;;;;;;24.15;8.75;;;;;;;22.94;43.68;101642.95;1717388;82;21337;-78
2022/10/13 06:23:28;;;;;;;28.40;9.73;;;;;;;22.91;43.81;101638.03;1726890;82;21040;-78
2022/10/13 06:25:54;;;;;;;23.87;9.10;;;;;;;22.89;43.83;101638.08;1714847;82;21040;-77
2022/10/13 06:28:21;;;;;;;29.82;10.72;;;;;;;22.84;43.90;101636.23;1730461;81;21218;-76
2022/10/13 06:30:58;;;;;;;20.52;9.78;;;;;;;22.82;43.98;101641.30;1714258;82;21414;-81
2022/10/13 06:33:17;;;;;;;22.65;9.48;;;;;;;22.80;44.03;101638.56;1722285;82;21099;-81
2022/10/13 06:35:45;;;;;;;17.95;9.63;;;;;;;22.78;44.13;101645.01;1736104;82;21918;-81
2022/10/13 06:38:12;;;;;;;25.25;10.70;;;;;;;22.74;44.19;101640.06;1727082;81;21036;-85
2022/10/13 06:40:38;;;;;;;22.32;8.73;;;;;;;22.71;44.26;101640.69;1720290;82;21063;-82
2022/10/13 06:43:04;;;;;;;21.48;9.78;;;;;;;22.66;44.34;101640.77;1716397;81;21653;-83
2022/10/13 06:45:31;;;;;;;22.10;9.70;;;;;;;22.63;44.41;101638.62;1721567;81;21622;-77
2022/10/13 06:47:57;;;;;;;22.13;10.72;;;;;;;22.59;44.47;101638.17;1724831;79;22523;-82
2022/10/13 06:50:24;;;;;;;30.37;12.33;;;;;;;22.55;44.57;101632.43;1678693;82;21089;-85
2022/10/13 06:52:52;;;;;;;24.47;10.05;;;;;;;22.52;44.70;101635.84;1715508;81;21396;-80
2022/10/13 06:55:19;;;;;;;28.60;10.03;;;;;;;22.48;44.78;101627.06;1718640;81;21099;-81
2022/10/13 06:57:47;;;;;;;27.10;10.18;;;;;;;22.44;44.84;101631.58;1751307;80;21094;-78
2022/10/13 07:00:14;;;;;;;40.17;9.95;;;;;;;22.38;44.92;101632.81;1722044;81;21496;-79
2022/10/13 07:02:40;;;;;;;28.23;10.18;;;;;;;22.35;45.03;101632.88;1718919;83;21148;-82
2022/10/13 07:05:07;;;;;;;28.50;9.93;;;;;;;22.30;45.21;101632.42;1694327;82;21644;-86
2022/10/13 07:07:34;;;;;;;21.87;9.48;;;;;;;22.26;45.33;101628.62;1687452;82;21125;-79
2022/10/13 07:10:07;;;;;;;30.02;9.13;;;;;;;22.25;45.42;101631.69;1719495;82;21088;-81
2022/10/13 07:12:33;;;;;;;29.65;9.30;;;;;;;22.23;45.55;101629.25;1713636;81;21886;-82
2022/10/13 07:14:59;;;;;;;34.83;9.58;;;;;;;22.22;45.64;101630.94;1708133;81;21132;-80
2022/10/13 07:17:35;;;;;;;24.23;10.13;;;;;;;22.20;45.72;101630.41;1687545;82;21217;-82
2022/10/13 07:20:03;;;;;;;32.20;9.90;;;;;;;22.17;45.83;101626.31;1735095;80;21040;-81
2022/10/13 07:22:30;;;;;;;23.45;8.85;;;;;;;22.15;45.91;101632.72;1685040;83;21603;-83
2022/10/13 07:24:56;;;;;;;24.20;8.53;;;;;;;22.13;45.99;101631.39;1735615;81;22044;-83
2022/10/13 07:27:22;;;;;;;24.12;9.30;;;;;;;22.11;45.98;101627.53;1735649;80;21036;-83
2022/10/13 07:29:49;;;;;;;22.48;9.23;;;;;;;22.09;45.99;101624.83;1743749;80;21079;-80
2022/10/13 07:32:15;;;;;;;18.87;8.60;;;;;;;22.07;45.94;101631.22;1734067;80;21072;-81
2022/10/13 07:34:42;;;;;;;21.23;8.98;;;;;;;22.05;45.88;101625.19;1736224;80;21729;-78
2022/10/13 07:37:08;;;;;;;16.35;7.80;;;;;;;22.03;45.79;101626.05;1733782;80;21151;-81
2022/10/13 07:39:35;;;;;;;20.97;8.53;;;;;;;22.00;45.68;101620.56;1745107;80;21490;-79
2022/10/13 07:42:01;;;;;;;19.60;7.87;;;;;;;21.97;45.50;101618.98;1741442;80;21036;-79
2022/10/13 07:44:28;;;;;;;24.43;9.03;;;;;;;21.95;45.51;101622.05;1743849;80;21169;-81
2022/10/13 07:46:56;;;;;;;29.75;13.25;;;;;;;21.93;45.68;101616.56;1719155;80;21108;-78
2022/10/13 07:49:23;;;;;;;28.73;10.80;;;;;;;21.91;45.96;101624.31;1736026;80;21120;-84
2022/10/13 07:51:51;;;;;;;27.35;10.10;;;;;;;21.89;46.16;101623.26;1718629;81;21542;-82
2022/10/13 07:54:18;;;;;;;29.27;10.70;;;;;;;21.86;46.23;101620.52;1705706;81;21060;-82
2022/10/13 07:56:44;;;;;;;43.92;10.48;;;;;;;21.83;46.34;101618.92;1709610;81;21182;-87
2022/10/13 07:59:11;;;;;;;32.35;9.95;;;;;;;21.82;46.63;101628.36;1736871;80;21130;-86
2022/10/13 08:01:37;;;;;;;48.98;10.60;;;;;;;21.81;46.91;101628.92;1703081;81;21644;-79
2022/10/13 08:04:04;;;;;;;37.80;10.28;;;;;;;21.80;46.94;101630.07;1710282;81;21024;-83
2022/10/13 08:06:30;;;;;;;45.95;10.98;;;;;;;21.81;47.35;101628.12;1731638;80;21048;-84
2022/10/13 08:08:59;;;;;;;43.35;11.18;;;;;;;21.80;47.46;101625.91;1733179;80;21056;-82
2022/10/13 08:11:25;;;;;;;42.95;10.48;;;;;;;21.80;47.54;101623.14;1728958;80;21133;-83
2022/10/13 08:13:52;;;;;;;35.70;10.50;;;;;;;21.81;47.66;101622.59;1740304;80;21831;-89
2022/10/13 08:16:19;;;;;;;38.28;10.63;;;;;;;21.80;47.72;101624.53;1710874;81;21032;-81
2022/10/13 08:19:03;;;;;;;45.80;10.65;;;;;;;21.81;47.77;101629.52;1739698;80;34315;-86
2022/10/13 08:21:30;;;;;;;31.15;10.43;;;;;;;21.81;47.88;101621.20;1644554;84;21087;-84
2022/10/13 08:23:57;;;;;;;38.48;10.48;;;;;;;21.79;47.94;101622.88;1741229;80;21107;-81
2022/10/13 08:26:26;;;;;;;49.25;11.25;;;;;;;21.79;48.00;101621.50;1742234;81;21051;-82
2022/10/13 08:28:58;;;;;;;29.60;9.83;;;;;;;21.78;48.06;101621.23;1737155;80;21099;-81
2022/10/13 08:31:25;;;;;;;26.90;9.90;;;;;;;21.77;48.12;101618.20;1716784;81;21157;-86
2022/10/13 08:33:51;;;;;;;33.15;11.57;;;;;;;21.76;48.29;101611.04;1713442;81;21079;-87
2022/10/13 08:36:18;;;;;;;32.33;12.00;;;;;;;21.75;48.35;101614.92;1746513;80;21082;-89
2022/10/13 08:38:44;;;;;;;34.40;11.22;;;;;;;21.74;48.34;101613.84;1732273;81;21334;-81
2022/10/13 08:41:18;;;;;;;38.65;10.85;;;;;;;21.74;48.46;101612.45;1734898;80;20999;-82
2022/10/13 08:43:57;;;;;;;39.98;11.45;;;;;;;21.74;48.74;101616.61;1704651;81;21096;-78
2022/10/13 08:46:29;;;;;;;47.25;10.93;;;;;;;21.74;49.12;101620.20;1743184;80;21079;-78
2022/10/13 08:48:56;;;;;;;40.98;10.90;;;;;;;21.75;49.14;101619.08;1739532;80;21082;-79
2022/10/13 08:51:22;;;;;;;37.45;9.55;;;;;;;21.74;49.06;101611.06;1739567;80;21942;-79
2022/10/13 08:53:49;;;;;;;29.57;9.90;;;;;;;21.75;49.12;101606.61;1728089;80;21123;-79
2022/10/13 08:56:28;;;;;;;26.02;9.05;;;;;;;21.75;49.13;101608.56;1748888;80;21093;-78
2022/10/13 08:58:55;;;;;;;33.60;8.73;;;;;;;21.75;49.22;101611.33;1747087;80;21140;-79
2022/10/13 09:01:26;;;;;;;27.65;8.10;;;;;;;21.76;49.29;101608.83;1730438;81;22256;-79
2022/10/13 09:04:07;;;;;;;32.28;8.63;;;;;;;21.76;49.39;101605.50;1729641;80;24706;-80
2022/10/13 09:06:44;;;;;;;29.95;8.08;;;;;;;21.75;49.37;101606.61;1709933;81;21040;-80
2022/10/13 09:09:11;;;;;;;31.40;9.23;;;;;;;21.73;49.34;101603.88;1717136;81;21112;-80
2022/10/13 09:11:40;;;;;;;33.45;8.68;;;;;;;21.73;49.42;101601.11;1749030;80;21073;-80
2022/10/13 09:14:09;;;;;;;27.55;9.08;;;;;;;21.73;49.50;101599.72;1747927;80;20999;-80
2022/10/13 09:16:40;;;;;;;26.30;8.38;;;;;;;21.74;49.49;101598.05;1712580;81;21730;-79
2022/10/13 09:19:32;;;;;;;17.05;8.13;;;;;;;21.74;49.51;101595.83;1708476;83;21087;-80
2022/10/13 09:22:15;;;;;;;19.52;8.13;;;;;;;21.74;49.49;101598.05;1707346;81;21120;-80
2022/10/13 09:24:42;;;;;;;19.07;7.28;;;;;;;21.73;49.47;101595.01;1684477;83;21385;-78
2022/10/13 09:27:15;;;;;;;34.43;8.63;;;;;;;21.74;49.41;101601.38;1743892;80;21053;-78
2022/10/13 09:29:43;;;;;;;25.80;8.65;;;;;;;21.73;49.39;101600.55;1727872;80;21105;-78
2022/10/13 09:32:18;;;;;;;25.68;7.78;;;;;;;21.72;49.35;101593.39;1760903;80;21027;-79
2022/10/13 09:34:45;;;;;;;20.80;8.35;;;;;;;21.71;49.34;101591.73;1749996;81;21173;-78
2022/10/13 09:37:24;;;;;;;24.77;8.45;;;;;;;21.70;49.27;101590.09;1750192;80;21067;-78
2022/10/13 09:40:19;;;;;;;23.00;7.85;;;;;;;21.69;49.25;101587.61;1749968;81;21139;-78
2022/10/13 09:42:51;;;;;;;20.92;7.65;;;;;;;21.69;49.21;101583.46;1742980;80;21116;-77
2022/10/13 09:45:20;;;;;;;17.20;7.72;;;;;;;21.68;49.17;101581.28;1722740;83;21067;-78
2022/10/13 09:47:53;;;;;;;26.35;8.03;;;;;;;21.66;49.17;101575.22;1722060;81;21128;-78
2022/10/13 09:50:28;;;;;;;18.02;8.23;;;;;;;21.67;49.11;101574.66;1741247;80;21111;-77
2022/10/13 09:53:15;;;;;;;18.37;8.65;;;;;;;21.64;49.06;101574.69;1708924;81;21107;-79
2022/10/13 09:55:42;;;;;;;19.12;8.28;;;;;;;21.64;48.99;101571.91;1721231;81;21280;-77
2022/10/13 09:58:22;;;;;;;19.95;7.22;;;;;;;21.63;48.94;101577.78;1717270;81;21080;-79
2022/10/13 10:00:49;;;;;;;26.00;7.08;;;;;;;21.60;48.92;101570.89;1728773;81;21142;-78
2022/10/13 10:03:21;;;;;;;26.80;7.72;;;;;;;21.60;48.80;101568.12;1709113;81;21082;-80
2022/10/13 10:05:56;;;;;;;37.15;7.40;;;;;;;21.60;48.67;101575.04;1722828;82;21139;-78
2022/10/13 10:08:46;;;;;;;20.43;7.15;;;;;;;21.58;48.62;101564.84;1732318;81;21103;-79
2022/10/13 10:11:28;;;;;;;19.35;6.83;;;;;;;21.57;48.61;101564.58;1711297;81;22182;-77
2022/10/13 10:13:56;;;;;;;19.10;7.15;;;;;;;21.57;48.49;101559.61;1717938;81;21089;-79
2022/10/13 10:16:33;;;;;;;25.90;6.85;;;;;;;21.56;48.56;101557.39;1718099;81;21143;-78
2022/10/13 10:19:11;;;;;;;18.52;7.10;;;;;;;21.57;48.61;101550.73;1710564;81;21265;-79
2022/10/13 10:22:02;;;;;;;16.48;7.08;;;;;;;21.59;48.61;101547.67;1722926;81;21079;-79
2022/10/13 10:24:43;;;;;;;13.43;5.67;;;;;;;21.59;48.63;101542.96;1732493;81;21067;-80
2022/10/13 10:27:26;;;;;;;14.70;6.00;;;;;;;21.59;48.60;101544.34;1735473;81;21083;-80
2022/10/13 10:30:07;;;;;;;20.00;7.12;;;;;;;21.60;48.54;101540.42;1745705;81;21051;-79
2022/10/13 10:32:57;;;;;;;12.15;5.50;;;;;;;21.60;48.47;101537.66;1724798;81;21075;-78
2022/10/13 10:35:49;;;;;;;13.25;5.60;;;;;;;21.61;48.39;101534.33;1734917;79;22228;-81
2022/10/13 10:38:34;;;;;;;14.70;6.10;;;;;;;21.60;48.25;101536.27;1752338;80;21588;-81
2022/10/13 10:41:32;;;;;;;15.65;5.85;;;;;;;21.60;48.10;101522.42;1742287;81;21088;-81
2022/10/13 10:44:12;;;;;;;21.55;7.33;;;;;;;21.58;47.98;101519.72;1724727;81;21138;-80
2022/10/13 10:46:45;;;;;;;16.02;5.40;;;;;;;21.58;47.84;101521.11;1718635;81;21512;-80
2022/10/13 10:49:26;;;;;;;15.32;5.83;;;;;;;21.56;47.62;101517.25;1748726;80;21131;-81
2022/10/13 10:51:53;;;;;;;19.57;5.72;;;;;;;21.57;47.47;101523.61;1722603;81;21130;-82
2022/10/13 10:54:53;;;;;;;14.43;5.35;;;;;;;21.54;47.45;101513.98;1731294;80;21523;-82
2022/10/13 10:57:34;;;;;;;17.40;4.78;;;;;;;21.54;47.47;101509.83;1732525;81;21491;-81
2022/10/13 11:00:21;;;;;;;23.67;4.85;;;;;;;21.55;47.26;101506.50;1742994;80;21074;-82
2022/10/13 11:03:17;;;;;;;28.67;5.65;;;;;;;21.58;47.12;101510.03;1728327;81;21130;-81
2022/10/13 11:06:05;;;;;;;21.07;5.17;;;;;;;21.57;47.02;101495.36;1713401;82;21059;-81
2022/10/13 11:08:45;;;;;;;26.12;5.70;;;;;;;21.60;47.03;101500.27;1742403;80;21088;-81
2022/10/13 11:11:28;;;;;;;19.37;4.70;;;;;;;21.59;46.89;101495.89;1736485;80;21111;-80
2022/10/13 11:14:05;;;;;;;11.05;4.72;;;;;;;21.57;46.78;101484.84;1707494;82;21661;-80
2022/10/13 11:16:38;;;;;;;19.73;5.08;;;;;;;21.55;46.76;101485.73;1682757;83;21960;-81
2022/10/13 11:19:27;;;;;;;13.83;4.28;;;;;;;21.52;46.73;101474.69;1741465;81;21028;-80
2022/10/13 11:22:05;;;;;;;20.50;5.30;;;;;;;21.51;46.46;101472.25;1750499;80;21083;-80
2022/10/13 11:24:45;;;;;;;15.50;4.80;;;;;;;21.50;46.34;101470.60;1750439;81;21092;-82
2022/10/13 11:27:17;;;;;;;15.00;4.13;;;;;;;21.46;46.02;101463.48;1723753;83;21096;-80
2022/10/13 11:29:53;;;;;;;12.60;4.25;;;;;;;21.44;45.53;101460.19;1724728;81;21025;-80
2022/10/13 11:35:11;;;;;;;8.78;3.58;;;;;;;21.40;45.02;101452.23;1737916;81;21130;-80
2022/10/13 11:38:01;;;;;;;17.15;4.40;;;;;;;21.40;44.92;101451.68;1743831;80;21149;-80